Time;durP1;ratioP1;P1;durP2;ratioP2;P2;SDS_P1;SDS_P2;PMS_P1;PMS_P2;Temp;Humidity;BMP_temperature;BMP_pressure;BME280_temperature;BME280_humidity;BME280_pressure;Samples;Min_cycle;Max_cycle;Signal;HPM_P1;HPM_P2
2023/08/20 00:00:48;;;;;;;6.80;5.10;;;;;;;18.56;93.99;99954.96;109901;1274;100003;-64
2023/08/20 00:03:36;;;;;;;7.00;5.10;;;;;;;18.51;94.22;99953.27;109997;1277;22508;-65
2023/08/20 00:06:06;;;;;;;6.70;5.60;;;;;;;18.47;94.20;99949.25;109924;1274;22312;-64
2023/08/20 00:08:34;;;;;;;8.20;5.40;;;;;;;18.53;94.09;99945.13;109866;1278;99590;-65
2023/08/20 00:11:05;;;;;;;6.80;5.10;;;;;;;18.53;93.80;99950.58;110033;1277;23167;-65
2023/08/20 00:13:34;;;;;;;6.90;4.50;;;;;;;18.52;93.76;99953.29;109905;1276;99755;-65
2023/08/20 00:16:03;;;;;;;7.30;5.70;;;;;;;18.49;93.87;99951.42;109868;1280;22273;-64
2023/08/20 00:18:32;;;;;;;5.60;5.00;;;;;;;18.48;94.04;99953.08;109965;1277;22341;-65
2023/08/20 00:21:04;;;;;;;10.20;5.60;;;;;;;18.48;93.93;99954.88;109885;1276;99911;-65
2023/08/20 00:23:33;;;;;;;6.20;5.10;;;;;;;18.47;93.92;99957.91;109944;1277;22351;-64
2023/08/20 00:26:02;;;;;;;7.20;5.40;;;;;;;18.43;93.86;99960.71;109949;1277;99544;-65
2023/08/20 00:28:34;;;;;;;5.20;4.70;;;;;;;18.41;93.96;99956.98;109954;1277;22833;-64
2023/08/20 00:31:03;;;;;;;7.20;4.80;;;;;;;18.41;94.23;99951.31;109879;1276;99634;-64
2023/08/20 00:33:32;;;;;;;5.50;5.00;;;;;;;18.40;94.17;99945.23;109983;1277;23696;-65
2023/08/20 00:36:01;;;;;;;9.00;5.30;;;;;;;18.36;94.10;99945.89;109878;1280;22260;-65
2023/08/20 00:38:30;;;;;;;8.20;6.10;;;;;;;18.36;94.13;99944.69;109940;1276;99578;-65
2023/08/20 00:40:59;;;;;;;8.10;5.80;;;;;;;18.37;94.46;99941.30;109932;1278;23516;-66
2023/08/20 00:43:30;;;;;;;6.00;5.20;;;;;;;18.36;94.56;99944.30;109851;1276;99683;-65
2023/08/20 00:46:05;;;;;;;7.00;5.40;;;;;;;18.35;94.50;99947.24;110005;1268;22142;-65
2023/08/20 00:48:34;;;;;;;7.90;5.70;;;;;;;18.32;94.45;99941.97;109876;1277;22284;-66
2023/08/20 00:51:04;;;;;;;6.30;4.90;;;;;;;18.30;94.42;99939.34;109719;1260;99795;-66
2023/08/20 00:53:32;;;;;;;6.50;5.00;;;;;;;18.28;94.48;99941.05;109894;1278;22419;-66
2023/08/20 00:56:05;;;;;;;7.20;6.20;;;;;;;18.27;94.42;99941.28;109879;1274;101772;-66
2023/08/20 00:58:33;;;;;;;7.20;5.10;;;;;;;18.27;94.69;99941.31;109835;1277;22136;-66
2023/08/20 01:01:02;;;;;;;6.30;5.20;;;;;;;18.29;94.83;99941.17;109936;1277;99587;-66
2023/08/20 01:03:31;;;;;;;7.30;6.20;;;;;;;18.32;94.92;99940.79;109924;1278;22264;-66
2023/08/20 01:06:23;;;;;;;6.70;5.70;;;;;;;18.32;94.96;99939.69;110004;1276;22189;-64
2023/08/20 01:09:06;;;;;;;6.80;4.90;;;;;;;18.32;94.88;99938.64;109894;1277;100190;-65
2023/08/20 01:11:45;;;;;;;6.30;5.60;;;;;;;18.32;94.76;99937.45;109976;1278;23110;-65
2023/08/20 01:14:19;;;;;;;7.20;5.60;;;;;;;18.30;94.82;99932.64;109837;1277;99461;-66
2023/08/20 01:16:56;;;;;;;5.50;4.70;;;;;;;18.28;94.74;99933.46;109915;1276;22981;-66
2023/08/20 01:19:25;;;;;;;7.10;5.10;;;;;;;18.26;94.76;99934.14;109843;1277;99667;-65
2023/08/20 01:22:05;;;;;;;6.50;5.70;;;;;;;18.24;94.79;99932.08;109850;1278;22292;-65
2023/08/20 01:24:56;;;;;;;6.60;5.60;;;;;;;18.22;94.80;99936.98;109961;1278;22241;-65
2023/08/20 01:27:52;;;;;;;7.50;6.40;;;;;;;18.16;94.74;99937.94;109977;1276;22321;-66
2023/08/20 01:30:30;;;;;;;6.30;5.40;;;;;;;18.14;94.90;99942.13;109875;1278;22294;-65
2023/08/20 01:33:03;;;;;;;8.60;6.50;;;;;;;18.10;94.87;99940.50;109901;1278;99732;-66
2023/08/20 01:35:32;;;;;;;8.20;6.40;;;;;;;18.09;94.87;99942.64;110021;1276;22484;-66
2023/08/20 01:38:00;;;;;;;7.50;6.40;;;;;;;18.06;94.83;99939.86;109931;1276;99513;-66
2023/08/20 01:40:30;;;;;;;7.80;6.20;;;;;;;18.05;94.79;99938.34;109997;1277;23067;-66
2023/08/20 01:42:59;;;;;;;11.00;7.80;;;;;;;18.05;94.92;99938.77;109893;1277;100126;-65
2023/08/20 01:45:28;;;;;;;15.40;6.60;;;;;;;18.04;95.19;99938.59;109845;1277;22135;-66
2023/08/20 01:47:57;;;;;;;7.80;5.70;;;;;;;18.03;95.40;99942.21;109994;1276;22948;-66
2023/08/20 01:50:25;;;;;;;7.30;5.50;;;;;;;18.00;95.31;99942.11;109856;1277;99955;-66
2023/08/20 01:52:54;;;;;;;7.20;5.50;;;;;;;17.97;95.38;99946.05;109971;1276;22960;-65
2023/08/20 01:55:23;;;;;;;9.40;6.10;;;;;;;17.94;95.43;99943.64;109874;1280;99663;-65
2023/08/20 01:57:52;;;;;;;11.40;6.30;;;;;;;17.92;95.29;99942.03;109962;1280;22068;-66
2023/08/20 02:00:20;;;;;;;6.70;5.60;;;;;;;17.90;95.15;99942.17;109956;1278;22189;-66
2023/08/20 02:02:49;;;;;;;8.80;5.00;;;;;;;17.88;95.18;99943.86;109883;1277;99569;-66
2023/08/20 02:05:17;;;;;;;8.50;5.70;;;;;;;17.88;95.11;99944.39;109955;1280;22267;-66
2023/08/20 02:07:46;;;;;;;8.20;5.00;;;;;;;17.89;94.95;99943.12;109883;1281;99480;-66
2023/08/20 02:10:15;;;;;;;12.20;5.30;;;;;;;17.86;94.81;99948.11;110004;1277;22276;-66
2023/08/20 02:12:44;;;;;;;7.90;5.60;;;;;;;17.81;94.80;99947.75;109997;1280;22280;-65
2023/08/20 02:15:12;;;;;;;8.40;5.60;;;;;;;17.77;94.85;99942.23;109880;1280;99305;-66
2023/08/20 02:17:41;;;;;;;9.30;6.00;;;;;;;17.75;94.96;99940.78;109988;1276;22529;-66
2023/08/20 02:20:10;;;;;;;7.70;5.60;;;;;;;17.74;95.06;99939.61;109801;1278;99508;-66
2023/08/20 02:22:39;;;;;;;5.50;4.90;;;;;;;17.72;94.93;99938.56;109911;1278;22352;-65
2023/08/20 02:25:08;;;;;;;9.40;6.10;;;;;;;17.68;94.98;99941.25;109903;1277;99647;-66
2023/08/20 02:27:39;;;;;;;8.50;6.30;;;;;;;17.64;95.10;99939.42;109989;1277;22141;-66
2023/08/20 02:30:07;;;;;;;8.50;6.30;;;;;;;17.62;95.14;99939.61;110029;1277;22180;-66
2023/08/20 02:32:36;;;;;;;7.50;5.70;;;;;;;17.61;95.16;99939.81;109961;1277;99985;-65
2023/08/20 02:35:05;;;;;;;7.50;5.70;;;;;;;17.61;95.11;99934.23;110064;1276;22983;-66
2023/08/20 02:37:34;;;;;;;7.50;6.20;;;;;;;17.58;95.12;99933.73;109946;1278;99596;-66
2023/08/20 02:40:04;;;;;;;7.10;5.30;;;;;;;17.57;95.18;99932.92;109992;1278;22174;-65
2023/08/20 02:42:33;;;;;;;6.50;5.20;;;;;;;17.57;95.20;99932.52;109845;1283;22283;-66
2023/08/20 02:45:02;;;;;;;7.90;5.30;;;;;;;17.55;95.27;99928.33;109906;1277;99418;-65
2023/08/20 02:47:36;;;;;;;7.90;4.10;;;;;;;17.49;94.98;99925.75;110014;1277;27698;-65
2023/08/20 02:50:06;;;;;;;6.80;5.00;;;;;;;17.38;94.82;99927.45;109936;1276;99563;-64
2023/08/20 02:52:34;;;;;;;9.40;5.40;;;;;;;17.32;95.06;99931.04;110026;1268;22158;-65
2023/08/20 02:55:07;;;;;;;6.30;5.20;;;;;;;17.28;95.15;99929.77;109930;1276;99544;-65
2023/08/20 02:57:46;;;;;;;6.10;4.90;;;;;;;17.25;95.26;99929.99;110026;1276;22308;-64
2023/08/20 03:00:15;;;;;;;8.50;4.60;;;;;;;17.27;95.76;99923.16;110032;1273;22283;-65
2023/08/20 03:02:44;;;;;;;7.60;5.10;;;;;;;17.28;95.84;99925.01;109899;1276;102187;-65
2023/08/20 03:05:14;;;;;;;6.30;5.30;;;;;;;17.28;95.90;99928.00;110031;1276;22304;-65
2023/08/20 03:07:43;;;;;;;6.50;5.00;;;;;;;17.30;96.20;99927.33;109926;1270;100023;-65
2023/08/20 03:10:12;;;;;;;5.80;5.00;;;;;;;17.33;96.33;99924.61;110026;1277;23107;-65
2023/08/20 03:12:42;;;;;;;5.90;5.10;;;;;;;17.37;96.21;99929.29;110047;1276;22930;-65
2023/08/20 03:15:11;;;;;;;6.30;4.80;;;;;;;17.35;95.94;99935.54;109961;1277;99487;-65
2023/08/20 03:17:39;;;;;;;5.10;4.20;;;;;;;17.35;95.98;99939.42;110020;1277;22109;-65
2023/08/20 03:20:10;;;;;;;7.20;5.10;;;;;;;17.35;96.17;99939.30;109921;1277;99487;-65
2023/08/20 03:22:39;;;;;;;7.50;4.60;;;;;;;17.35;96.20;99943.84;110016;1276;23030;-65
2023/08/20 03:25:09;;;;;;;7.20;4.40;;;;;;;17.34;96.10;99946.02;109922;1277;99619;-65
2023/08/20 03:27:42;;;;;;;5.40;4.60;;;;;;;17.37;96.40;99944.45;110019;1276;22291;-65
2023/08/20 03:30:11;;;;;;;5.30;3.90;;;;;;;17.40;96.55;99941.02;109996;1276;22201;-65
2023/08/20 03:32:40;;;;;;;4.80;3.70;;;;;;;17.41;96.54;99942.50;109944;1278;99437;-65
2023/08/20 03:35:09;;;;;;;6.30;4.30;;;;;;;17.39;96.19;99943.38;109956;1276;22091;-65
2023/08/20 03:37:38;;;;;;;5.00;4.10;;;;;;;17.37;96.00;99946.16;109921;1277;99967;-65
2023/08/20 03:40:07;;;;;;;5.60;4.40;;;;;;;17.38;96.20;99946.25;109988;1278;23078;-65
2023/08/20 03:42:36;;;;;;;4.90;4.00;;;;;;;17.37;96.29;99947.23;110000;1277;22127;-66
2023/08/20 03:45:05;;;;;;;5.80;4.10;;;;;;;17.29;96.70;99952.41;109890;1278;99687;-65
2023/08/20 03:47:42;;;;;;;5.70;4.00;;;;;;;17.27;96.89;99955.36;109949;1278;22184;-65
2023/08/20 03:50:11;;;;;;;5.40;4.20;;;;;;;17.30;96.56;99954.98;109692;1280;100051;-65
2023/08/20 03:52:40;;;;;;;6.30;4.10;;;;;;;17.30;96.60;99953.92;109941;1276;23011;-65
2023/08/20 03:55:09;;;;;;;5.40;4.60;;;;;;;17.35;96.87;99954.27;109853;1276;99833;-65
2023/08/20 03:57:38;;;;;;;5.60;4.70;;;;;;;17.42;97.01;99956.19;109838;1276;22319;-66
2023/08/20 04:00:10;;;;;;;5.10;4.00;;;;;;;17.49;97.09;99956.53;109916;1277;22262;-65
2023/08/20 04:02:38;;;;;;;5.70;4.90;;;;;;;17.57;96.98;99955.59;109803;1276;99110;-66
2023/08/20 04:05:07;;;;;;;6.60;5.10;;;;;;;17.66;96.99;99952.99;109897;1277;22911;-65
2023/08/20 04:07:40;;;;;;;4.80;4.20;;;;;;;17.75;96.87;99954.17;109722;1277;99734;-65
2023/08/20 04:10:09;;;;;;;5.70;4.80;;;;;;;17.81;96.58;99959.05;109981;1276;22197;-65
2023/08/20 04:12:38;;;;;;;6.00;4.50;;;;;;;17.86;96.68;99962.13;109879;1280;22419;-65
2023/08/20 04:15:07;;;;;;;6.00;4.90;;;;;;;17.90;96.40;99966.42;109852;1280;99472;-65
2023/08/20 04:17:36;;;;;;;6.30;5.10;;;;;;;17.91;96.46;99961.23;109891;1277;22302;-65
2023/08/20 04:20:09;;;;;;;8.00;4.70;;;;;;;17.96;96.58;99962.85;109830;1278;100077;-65
2023/08/20 04:22:38;;;;;;;8.10;4.90;;;;;;;18.03;96.64;99963.72;109936;1267;23086;-65
2023/08/20 04:25:07;;;;;;;7.40;5.10;;;;;;;18.09;96.91;99965.02;109924;1277;99672;-65
2023/08/20 04:27:36;;;;;;;5.60;4.70;;;;;;;18.09;97.21;99967.64;110042;1276;22316;-66
2023/08/20 04:30:06;;;;;;;7.60;4.80;;;;;;;18.21;97.15;99963.98;109956;1277;22539;-65
2023/08/20 04:32:34;;;;;;;6.10;4.60;;;;;;;18.23;97.27;99958.53;109816;1278;100123;-61
2023/08/20 04:35:03;;;;;;;6.10;4.90;;;;;;;18.30;97.48;99957.12;109930;1277;22503;-67
2023/08/20 04:37:32;;;;;;;5.80;4.70;;;;;;;18.41;97.24;99957.32;109863;1276;99647;-69
2023/08/20 04:40:04;;;;;;;7.70;4.50;;;;;;;18.52;97.23;99959.50;109947;1276;22925;-66
2023/08/20 04:42:33;;;;;;;5.40;4.30;;;;;;;18.62;97.22;99957.02;109915;1276;22148;-66
2023/08/20 04:45:02;;;;;;;4.90;4.40;;;;;;;18.71;97.34;99958.20;109863;1276;99579;-66
2023/08/20 04:47:32;;;;;;;5.10;4.20;;;;;;;18.87;97.34;99958.23;109951;1277;22761;-65
2023/08/20 04:50:02;;;;;;;5.60;4.20;;;;;;;18.99;97.52;99958.72;109890;1276;99461;-66
2023/08/20 04:52:30;;;;;;;6.00;4.90;;;;;;;19.13;97.67;99964.52;109977;1276;23033;-65
2023/08/20 04:55:00;;;;;;;8.20;4.90;;;;;;;19.29;97.62;99970.08;109889;1279;99651;-65
2023/08/20 04:57:29;;;;;;;5.90;4.30;;;;;;;19.51;97.86;99974.35;109979;1276;22238;-65
2023/08/20 04:59:57;;;;;;;6.40;4.80;;;;;;;19.83;98.35;99972.63;110010;1277;22428;-66
2023/08/20 05:02:26;;;;;;;5.60;4.50;;;;;;;20.16;98.14;99972.41;109934;1276;99562;-66
2023/08/20 05:04:58;;;;;;;10.60;5.80;;;;;;;20.42;97.93;99968.45;110020;1276;22499;-66
2023/08/20 05:07:26;;;;;;;5.80;5.00;;;;;;;20.61;97.69;99972.91;109890;1277;99895;-66
2023/08/20 05:09:55;;;;;;;5.50;4.60;;;;;;;20.71;97.67;99972.21;110008;1277;22285;-66
2023/08/20 05:12:24;;;;;;;5.80;5.20;;;;;;;20.91;97.44;99975.69;109951;1277;22158;-66
2023/08/20 05:14:55;;;;;;;9.90;4.90;;;;;;;21.07;97.35;99979.02;109872;1276;99155;-66
2023/08/20 05:17:26;;;;;;;5.10;4.50;;;;;;;21.22;97.22;99976.09;109935;1277;22099;-66
2023/08/20 05:19:55;;;;;;;6.10;4.80;;;;;;;21.33;97.22;99975.38;109893;1277;99543;-66
2023/08/20 05:22:28;;;;;;;5.50;4.30;;;;;;;21.49;97.17;99977.35;109825;1277;23008;-65
2023/08/20 05:25:02;;;;;;;5.50;4.60;;;;;;;21.55;96.36;99979.48;109871;1278;99710;-63
2023/08/20 05:27:31;;;;;;;5.80;4.60;;;;;;;21.54;96.18;99973.70;109832;1277;22224;-66
2023/08/20 05:30:07;;;;;;;5.50;4.60;;;;;;;21.58;96.15;99973.09;109853;1277;23039;-66
2023/08/20 05:32:38;;;;;;;4.70;4.00;;;;;;;21.69;96.19;99979.29;109821;1280;99529;-67
2023/08/20 05:35:07;;;;;;;6.20;5.10;;;;;;;21.80;96.31;99973.88;109906;1276;23473;-66
2023/08/20 05:37:36;;;;;;;5.00;4.50;;;;;;;21.96;96.41;99974.14;109717;1280;100524;-68
2023/08/20 05:40:05;;;;;;;6.60;4.60;;;;;;;22.18;96.47;99974.33;109959;1276;22173;-69
2023/08/20 05:42:34;;;;;;;5.50;4.70;;;;;;;22.46;96.35;99975.81;109850;1278;23112;-68
2023/08/20 05:45:04;;;;;;;8.50;5.40;;;;;;;22.71;96.36;99979.86;109746;1278;99642;-69
2023/08/20 05:47:32;;;;;;;5.50;5.00;;;;;;;22.97;96.03;99978.45;109851;1277;22246;-66
2023/08/20 05:50:01;;;;;;;4.80;4.30;;;;;;;23.19;95.62;99980.30;109802;1277;99999;-68
2023/08/20 05:52:30;;;;;;;5.60;4.60;;;;;;;23.36;95.57;99975.58;109978;1278;22364;-67
2023/08/20 05:54:58;;;;;;;5.10;4.30;;;;;;;23.57;95.22;99984.80;109920;1277;99602;-65
2023/08/20 05:57:27;;;;;;;5.40;4.40;;;;;;;23.91;95.47;99982.05;109827;1281;22143;-65
2023/08/20 05:59:58;;;;;;;4.30;3.90;;;;;;;24.36;95.49;99984.85;109875;1276;22401;-64
2023/08/20 06:02:26;;;;;;;4.50;4.10;;;;;;;24.77;95.36;99984.92;109745;1280;100057;-65
2023/08/20 06:04:55;;;;;;;3.70;3.30;;;;;;;25.07;94.51;99985.96;109692;1277;367135;-65
2023/08/20 06:07:24;;;;;;;5.10;3.60;;;;;;;25.16;93.46;99982.09;109861;1280;100165;-65
2023/08/20 06:09:53;;;;;;;4.40;3.50;;;;;;;25.18;93.24;99982.86;109951;1276;22379;-68
2023/08/20 06:12:21;;;;;;;5.30;3.70;;;;;;;25.22;92.95;99982.09;109949;1277;22301;-65
2023/08/20 06:14:50;;;;;;;5.40;3.60;;;;;;;25.32;92.99;99978.41;109863;1279;99503;-65
2023/08/20 06:17:18;;;;;;;3.90;3.40;;;;;;;25.54;92.82;99979.02;109989;1278;22084;-65
2023/08/20 06:19:47;;;;;;;3.40;3.10;;;;;;;25.85;92.47;99974.75;109884;1276;99116;-65
2023/08/20 06:22:16;;;;;;;5.00;2.90;;;;;;;26.19;92.07;99973.70;110017;1273;22172;-65
2023/08/20 06:24:44;;;;;;;3.20;2.40;;;;;;;26.48;91.24;99972.72;109896;1277;23033;-66
2023/08/20 06:27:13;;;;;;;4.20;3.50;;;;;;;26.79;90.61;99972.60;109926;1277;99335;-66
2023/08/20 06:29:44;;;;;;;3.60;3.10;;;;;;;27.15;90.08;99974.73;109988;1277;22306;-66
2023/08/20 06:32:13;;;;;;;4.20;3.00;;;;;;;27.50;89.42;99978.02;109913;1277;99549;-66
2023/08/20 06:34:42;;;;;;;4.10;3.10;;;;;;;27.83;88.89;99981.64;109959;1277;22405;-66
2023/08/20 06:37:14;;;;;;;3.30;2.90;;;;;;;28.15;88.75;99974.49;109769;1279;99544;-65
2023/08/20 06:39:43;;;;;;;3.70;3.20;;;;;;;28.40;88.36;99977.45;109870;1281;22847;-66
2023/08/20 06:42:12;;;;;;;3.70;2.50;;;;;;;28.58;87.44;99972.42;109961;1280;23029;-66
2023/08/20 06:44:41;;;;;;;2.70;2.20;;;;;;;28.81;86.98;99970.27;109738;1277;99618;-66
2023/08/20 06:47:12;;;;;;;2.90;2.60;;;;;;;29.07;86.59;99971.09;109866;1276;23206;-66
2023/08/20 06:49:42;;;;;;;3.10;2.80;;;;;;;29.39;85.70;99966.06;109917;1276;99682;-66
2023/08/20 06:52:14;;;;;;;3.20;2.50;;;;;;;29.67;85.07;99966.35;109934;1280;22150;-66
2023/08/20 06:54:44;;;;;;;2.70;2.30;;;;;;;29.87;84.23;99965.96;109867;1281;22989;-66
2023/08/20 06:57:13;;;;;;;3.80;2.80;;;;;;;29.88;83.32;99963.84;109893;1277;99302;-66
2023/08/20 06:59:43;;;;;;;2.90;2.60;;;;;;;29.85;82.53;99965.03;110007;1276;23111;-66
2023/08/20 07:02:28;;;;;;;4.80;2.80;;;;;;;29.73;82.04;99965.72;109707;1280;101397;-66
2023/08/20 07:05:01;;;;;;;15.00;3.20;;;;;;;29.62;81.50;99967.37;109897;1278;22173;-66
2023/08/20 07:07:30;;;;;;;2.50;2.30;;;;;;;29.67;81.20;99961.42;109791;1280;99808;-67
2023/08/20 07:10:17;;;;;;;2.80;2.20;;;;;;;29.77;80.75;99964.08;109882;1279;22321;-65
2023/08/20 07:12:46;;;;;;;3.50;2.60;;;;;;;29.97;80.39;99966.59;109933;1279;23366;-63
2023/08/20 07:15:15;;;;;;;3.40;2.40;;;;;;;30.12;79.57;99963.29;109922;1276;99307;-65
2023/08/20 07:17:44;;;;;;;2.50;2.30;;;;;;;30.19;79.45;99963.90;109802;1278;22946;-65
2023/08/20 07:20:14;;;;;;;3.90;2.90;;;;;;;30.45;78.75;99963.99;109676;1280;99435;-66
2023/08/20 07:22:43;;;;;;;2.50;2.20;;;;;;;30.70;78.23;99953.80;109989;1276;22156;-65
2023/08/20 07:25:12;;;;;;;4.00;2.20;;;;;;;31.14;78.09;99958.84;109841;1279;99633;-63
2023/08/20 07:27:45;;;;;;;3.70;2.70;;;;;;;31.46;77.27;99956.98;109864;1277;22359;-64
2023/08/20 07:30:16;;;;;;;3.50;2.90;;;;;;;31.69;76.71;99955.55;109864;1277;22892;-65
2023/08/20 07:32:45;;;;;;;3.80;2.50;;;;;;;31.98;75.97;99959.36;109736;1276;99532;-61
2023/08/20 07:35:14;;;;;;;3.40;2.60;;;;;;;32.21;75.52;99961.92;109941;1276;23015;-64
2023/08/20 07:37:43;;;;;;;2.70;2.30;;;;;;;32.56;74.89;99961.20;109807;1276;99983;-62
2023/08/20 07:40:13;;;;;;;2.60;2.40;;;;;;;32.77;74.12;99963.17;109884;1277;22294;-62
2023/08/20 07:42:44;;;;;;;3.00;2.40;;;;;;;32.95;73.76;99965.42;109988;1278;22238;-62
2023/08/20 07:45:13;;;;;;;3.00;2.60;;;;;;;33.14;73.01;99973.15;109770;1276;99284;-66
2023/08/20 07:47:41;;;;;;;3.20;2.30;;;;;;;33.24;71.79;99979.61;109949;1264;22466;-65
2023/08/20 07:50:11;;;;;;;3.20;1.80;;;;;;;33.82;72.14;99972.14;109841;1276;99664;-66
2023/08/20 07:52:40;;;;;;;4.30;1.90;;;;;;;34.95;72.59;99968.65;109988;1276;22242;-65
2023/08/20 07:55:18;;;;;;;2.70;2.30;;;;;;;36.43;71.82;99969.27;109772;1281;99404;-66
2023/08/20 07:57:52;;;;;;;2.70;1.80;;;;;;;37.95;71.12;99968.92;109908;1276;22311;-66
2023/08/20 08:00:29;;;;;;;2.40;1.70;;;;;;;39.16;69.37;99961.15;109877;1278;22147;-68
2023/08/20 08:02:58;;;;;;;2.10;1.90;;;;;;;39.29;66.06;99958.25;109858;1274;101134;-65
2023/08/20 08:05:38;;;;;;;3.00;2.40;;;;;;;38.51;63.76;99957.98;110000;1276;22124;-65
2023/08/20 08:08:09;;;;;;;1.90;1.80;;;;;;;38.17;64.13;99956.35;109906;1279;99523;-65
2023/08/20 08:11:04;;;;;;;3.10;2.20;;;;;;;38.35;62.62;99955.59;109984;1276;22281;-66
2023/08/20 08:13:36;;;;;;;;;;;;;;;37.89;60.75;99952.55;109875;1276;100819;-66
2023/08/20 08:16:13;;;;;;;2.30;1.80;;;;;;;37.51;61.26;99955.47;109997;1276;22156;-66
2023/08/20 08:18:42;;;;;;;2.70;2.00;;;;;;;37.56;59.89;99957.08;109870;1276;22024;-66
2023/08/20 08:21:11;;;;;;;3.00;2.00;;;;;;;37.29;59.31;99962.52;109835;1277;99502;-66
2023/08/20 08:23:43;;;;;;;2.70;2.30;;;;;;;37.32;59.26;99964.55;109905;1278;22331;-66
2023/08/20 08:26:34;;;;;;;4.80;2.70;;;;;;;37.78;58.82;99963.47;109716;1277;100040;-66
2023/08/20 08:29:03;;;;;;;2.60;1.90;;;;;;;38.80;58.00;99962.79;109939;1276;22172;-66
2023/08/20 08:31:42;;;;;;;2.10;1.80;;;;;;;39.47;56.45;99963.93;109788;1276;99660;-66
2023/08/20 08:34:14;;;;;;;6.20;2.40;;;;;;;39.54;55.88;99960.17;109774;1280;22323;-67
2023/08/20 08:36:44;;;;;;;2.40;2.20;;;;;;;39.49;55.07;99963.40;109983;1276;22115;-65
2023/08/20 08:39:14;;;;;;;2.50;1.80;;;;;;;39.18;53.29;99961.66;109702;1276;99423;-67
2023/08/20 08:41:50;;;;;;;2.20;2.00;;;;;;;38.64;53.48;99969.20;109815;1277;22261;-65
2023/08/20 08:44:23;;;;;;;2.10;1.90;;;;;;;38.73;53.04;99973.63;109812;1276;99504;-67
2023/08/20 08:46:53;;;;;;;2.80;2.00;;;;;;;39.31;52.67;99970.64;109903;1277;22296;-65
2023/08/20 08:49:32;;;;;;;2.90;2.30;;;;;;;39.08;51.53;99971.60;109733;1277;99844;-65
2023/08/20 08:52:07;;;;;;;2.70;2.00;;;;;;;38.51;50.91;99974.73;109763;1280;23470;-66
2023/08/20 08:54:38;;;;;;;2.80;2.30;;;;;;;38.04;50.64;99977.67;109922;1277;22265;-67
2023/08/20 08:57:08;;;;;;;4.00;2.50;;;;;;;37.63;50.10;99979.28;109691;1277;99579;-67
2023/08/20 08:59:42;;;;;;;3.00;2.10;;;;;;;37.40;50.15;99982.85;109958;1277;23391;-66
2023/08/20 09:02:13;;;;;;;2.10;1.90;;;;;;;38.40;50.22;99986.73;109831;1280;99511;-67
2023/08/20 09:04:56;;;;;;;2.80;2.00;;;;;;;38.45;48.78;99984.52;109975;1276;22315;-66
2023/08/20 09:07:34;;;;;;;3.60;2.60;;;;;;;37.70;48.09;99989.21;109778;1276;100299;-65
2023/08/20 09:10:03;;;;;;;1.70;1.60;;;;;;;37.36;48.50;99988.92;109866;1280;22165;-65
2023/08/20 09:12:35;;;;;;;3.40;2.50;;;;;;;37.37;48.79;99994.16;109878;1280;22159;-65
2023/08/20 09:15:30;;;;;;;2.60;2.40;;;;;;;37.11;47.99;99998.36;109612;1277;98523;-65
2023/08/20 09:18:00;;;;;;;;;;;;;;;36.47;47.97;99999.36;109885;1279;22443;-65
2023/08/20 09:20:41;;;;;;;2.50;2.20;;;;;;;36.39;48.39;99999.69;109799;1276;86128;-64
2023/08/20 09:23:16;;;;;;;3.00;2.40;;;;;;;36.67;48.29;100002.06;109861;1279;22133;-64
2023/08/20 09:25:46;;;;;;;2.50;2.00;;;;;;;37.18;48.12;100004.13;109636;1276;100285;-65
2023/08/20 09:28:19;;;;;;;2.10;2.00;;;;;;;37.78;48.09;100002.27;109944;1277;22271;-66
2023/08/20 09:31:06;;;;;;;2.10;1.90;;;;;;;38.18;47.88;100006.42;109736;1277;22345;-64
2023/08/20 09:34:26;;;;;;;3.10;2.00;;;;;;;38.37;47.75;100005.21;109900;1276;22160;-65
2023/08/20 09:37:08;;;;;;;2.40;2.20;;;;;;;39.17;47.31;100005.88;109841;1278;22424;-65
2023/08/20 09:39:38;;;;;;;3.30;1.70;;;;;;;39.80;46.63;100008.00;109990;1276;22349;-65
2023/08/20 09:42:09;;;;;;;2.20;1.90;;;;;;;41.13;46.80;100011.81;109921;1277;22297;-65
2023/08/20 09:44:46;;;;;;;2.40;2.10;;;;;;;43.07;46.72;100013.52;109903;1277;99928;-66
2023/08/20 09:47:21;;;;;;;1.90;1.60;;;;;;;44.22;45.40;100014.39;109964;1274;22296;-65
2023/08/20 09:49:52;;;;;;;2.00;1.80;;;;;;;44.12;44.44;100015.31;109724;1276;99921;-65
2023/08/20 09:52:28;;;;;;;2.00;1.60;;;;;;;43.64;43.87;100018.27;109939;1277;22200;-65
2023/08/20 09:55:07;;;;;;;3.00;1.80;;;;;;;43.06;43.57;100019.73;109984;1277;22357;-66
2023/08/20 09:57:39;;;;;;;1.90;1.70;;;;;;;42.82;43.07;100020.95;109857;1277;23841;-65
2023/08/20 10:00:32;;;;;;;2.40;1.40;;;;;;;42.48;42.53;100024.10;109937;1277;23121;-66
2023/08/20 10:03:04;;;;;;;2.30;1.70;;;;;;;42.35;42.28;100021.86;109916;1276;101417;-64
2023/08/20 10:05:34;;;;;;;2.20;2.00;;;;;;;42.40;41.78;100022.40;109977;1277;22166;-67
2023/08/20 10:08:04;;;;;;;2.00;1.80;;;;;;;42.22;41.26;100021.89;109865;1276;99728;-67
2023/08/20 10:10:37;;;;;;;2.60;1.90;;;;;;;42.53;40.94;100020.79;109959;1276;22339;-66
2023/08/20 10:13:07;;;;;;;3.00;1.50;;;;;;;42.33;40.51;100020.42;109892;1277;22407;-64
2023/08/20 10:15:38;;;;;;;2.50;1.80;;;;;;;41.70;39.86;100018.52;109938;1276;22195;-65
2023/08/20 10:18:19;;;;;;;2.20;1.60;;;;;;;41.16;39.69;100010.35;109990;1275;22177;-65
2023/08/20 10:20:52;;;;;;;1.80;1.70;;;;;;;42.33;40.49;100011.76;109925;1277;99609;-65
2023/08/20 10:23:24;;;;;;;1.70;1.60;;;;;;;43.40;39.53;100006.63;110002;1276;22270;-65
2023/08/20 10:25:53;;;;;;;2.20;1.90;;;;;;;44.42;39.23;100006.02;109881;1276;99720;-66
2023/08/20 10:28:25;;;;;;;1.90;1.70;;;;;;;45.75;38.97;100007.29;109967;1276;22325;-67
2023/08/20 10:31:04;;;;;;;2.30;1.90;;;;;;;46.86;38.03;100005.20;109984;1276;22303;-67
2023/08/20 10:33:39;;;;;;;1.90;1.70;;;;;;;48.77;37.83;99998.79;109951;1276;22311;-67
2023/08/20 10:36:26;;;;;;;1.90;1.80;;;;;;;50.64;36.77;99991.00;110037;1276;22155;-66
2023/08/20 10:38:56;;;;;;;2.00;1.90;;;;;;;50.98;35.35;99990.79;109867;1276;99524;-64
2023/08/20 10:41:28;;;;;;;2.20;2.00;;;;;;;51.67;34.89;99986.58;109958;1276;22297;-68
2023/08/20 10:44:00;;;;;;;2.50;2.40;;;;;;;54.24;33.95;99982.27;109908;1276;100419;-67
2023/08/20 10:46:34;;;;;;;5.30;3.30;;;;;;;55.09;30.58;99981.99;109994;1277;22081;-68
2023/08/20 10:49:03;;;;;;;4.50;4.10;;;;;;;56.10;30.07;99975.17;109993;1276;22158;-67
2023/08/20 10:51:36;;;;;;;5.90;5.50;;;;;;;57.68;29.02;99971.61;109813;1276;99915;-67
2023/08/20 10:54:09;;;;;;;;;;;;;;;59.41;27.72;99968.52;109859;1276;22435;-67
2023/08/20 10:56:40;;;;;;;11.50;10.90;;;;;;;60.00;25.95;99966.42;109913;1276;86169;-67
2023/08/20 10:59:13;;;;;;;15.80;14.80;;;;;;;60.40;24.99;99960.04;109994;1276;22311;-67
2023/08/20 11:01:47;;;;;;;11.30;10.70;;;;;;;58.57;22.85;99958.89;109901;1276;100048;-66
2023/08/20 11:04:17;;;;;;;6.90;6.40;;;;;;;54.56;21.83;99948.77;110007;1276;23094;-66
2023/08/20 11:06:49;;;;;;;4.20;3.90;;;;;;;50.40;21.43;99942.20;110026;1276;22929;-65
2023/08/20 11:09:18;;;;;;;3.00;2.80;;;;;;;48.03;22.35;99941.39;109934;1276;99486;-65
2023/08/20 11:11:47;;;;;;;2.90;2.40;;;;;;;46.79;23.04;99944.54;109923;1277;23094;-66
2023/08/20 11:14:18;;;;;;;5.60;2.70;;;;;;;48.04;23.25;99942.19;109928;1276;99943;-66
2023/08/20 11:16:51;;;;;;;2.40;2.30;;;;;;;50.06;23.48;99946.21;109967;1277;22261;-66
2023/08/20 11:19:21;;;;;;;3.20;2.40;;;;;;;49.23;22.91;99937.89;109937;1277;99583;-65
2023/08/20 11:21:51;;;;;;;1.90;1.70;;;;;;;47.01;23.17;99935.73;110005;1276;22160;-66
2023/08/20 11:24:21;;;;;;;2.30;2.10;;;;;;;45.19;23.82;99939.45;109905;1276;22283;-65
2023/08/20 11:26:51;;;;;;;1.70;1.60;;;;;;;43.58;24.55;99938.02;109893;1276;99751;-65
2023/08/20 11:30:07;;;;;;;1.70;1.60;;;;;;;42.58;25.09;99944.52;109893;1277;22120;-66
2023/08/20 11:32:59;;;;;;;2.40;2.10;;;;;;;42.06;26.15;99943.61;108313;1292;99791;-66
2023/08/20 11:35:28;;;;;;;2.20;2.00;;;;;;;42.36;26.16;99947.81;108671;1291;22264;-65
2023/08/20 11:37:58;;;;;;;1.40;1.20;;;;;;;41.67;26.24;99954.74;108560;1291;99588;-65
2023/08/20 11:40:29;;;;;;;1.70;1.40;;;;;;;39.96;26.83;99955.02;108606;1292;22129;-65
2023/08/20 11:42:59;;;;;;;1.60;1.50;;;;;;;39.55;28.15;99957.64;108515;1292;23068;-65
2023/08/20 11:45:29;;;;;;;3.00;1.50;;;;;;;41.27;29.02;99956.91;108471;1291;100464;-65